Time;durP1;ratioP1;P1;durP2;ratioP2;P2;SDS_P1;SDS_P2;PMS_P1;PMS_P2;Temp;Humidity;BMP_temperature;BMP_pressure;BME280_temperature;BME280_humidity;BME280_pressure;Samples;Min_cycle;Max_cycle;Signal;HPM_P1;HPM_P2
2022/11/04 00:00:23;;;;;;;;;;;11.20;99.90;;;;;;5052951;28;19964;-65
2022/11/04 00:02:56;;;;;;;;;;;11.30;99.90;;;;;;5060232;28;20022;-66
2022/11/04 00:05:24;;;;;;;;;;;11.30;99.90;;;;;;5054511;28;20390;-66
2022/11/04 00:13:22;;;;;;;;;;;11.30;99.90;;;;;;5036845;28;19972;-65
2022/11/04 00:18:38;;;;;;;;;;;11.30;99.90;;;;;;5028388;28;19970;-66
2022/11/04 00:29:34;;;;;;;;;;;11.40;99.90;;;;;;5053613;28;19968;-65
2022/11/04 00:34:49;;;;;;;;;;;11.50;99.90;;;;;;5054086;28;20349;-65
2022/11/04 00:37:16;;;;;;;;;;;11.50;99.90;;;;;;5053973;28;19974;-65
2022/11/04 00:39:44;;;;;;;;;;;11.40;99.90;;;;;;5053520;28;19975;-65
2022/11/04 00:42:12;;;;;;;;;;;11.40;99.90;;;;;;5054072;28;20433;-65
2022/11/04 00:44:40;;;;;;;;;;;11.40;99.90;;;;;;5053823;28;20125;-64
2022/11/04 00:47:09;;;;;;;;;;;11.40;99.90;;;;;;5053762;28;20368;-65
2022/11/04 00:49:37;;;;;;;;;;;11.40;99.90;;;;;;5053621;28;19968;-65
2022/11/04 00:52:04;;;;;;;;;;;11.40;99.90;;;;;;5053855;28;19972;-65
2022/11/04 00:54:34;;;;;;;;;;;11.50;99.90;;;;;;5052066;28;20143;-65
2022/11/04 00:57:02;;;;;;;;;;;11.40;99.90;;;;;;5052916;28;20447;-65
2022/11/04 00:59:29;;;;;;;;;;;11.40;99.90;;;;;;5053041;28;19968;-65
2022/11/04 01:01:57;;;;;;;;;;;11.50;99.90;;;;;;5033638;28;19969;-66
2022/11/04 01:04:26;;;;;;;;;;;11.40;99.90;;;;;;5033563;28;20345;-66
2022/11/04 01:06:54;;;;;;;;;;;11.60;99.90;;;;;;5033479;28;20541;-66
2022/11/04 01:09:22;;;;;;;;;;;11.50;99.90;;;;;;5033421;28;20353;-66
2022/11/04 01:11:50;;;;;;;;;;;11.50;99.90;;;;;;5033247;28;19968;-66
2022/11/04 01:14:18;;;;;;;;;;;11.50;99.90;;;;;;5033351;28;19972;-66
2022/11/04 01:16:46;;;;;;;;;;;11.50;99.90;;;;;;5036259;28;19968;-66
2022/11/04 01:19:13;;;;;;;;;;;11.50;99.90;;;;;;5053191;28;19979;-65
2022/11/04 01:21:43;;;;;;;;;;;11.40;99.90;;;;;;5052768;28;19968;-65
2022/11/04 01:24:10;;;;;;;;;;;11.40;99.90;;;;;;5053168;28;19976;-66
2022/11/04 01:26:38;;;;;;;;;;;11.40;99.90;;;;;;5052565;28;20062;-66
2022/11/04 01:29:06;;;;;;;;;;;11.40;99.90;;;;;;5052169;28;20070;-65
2022/11/04 01:31:34;;;;;;;;;;;11.30;99.90;;;;;;5052576;28;19974;-66
2022/11/04 01:34:01;;;;;;;;;;;11.30;99.90;;;;;;5052890;28;20369;-65
2022/11/04 01:36:29;;;;;;;;;;;11.30;99.90;;;;;;5052909;28;19968;-65
2022/11/04 01:38:58;;;;;;;;;;;11.30;99.90;;;;;;5052744;28;19975;-66
2022/11/04 01:41:27;;;;;;;;;;;11.30;99.90;;;;;;5052442;28;19969;-66
2022/11/04 01:43:55;;;;;;;;;;;11.30;99.90;;;;;;5052782;28;19982;-65
2022/11/04 01:46:27;;;;;;;;;;;11.30;99.90;;;;;;5052697;28;20445;-66
2022/11/04 01:48:58;;;;;;;;;;;11.40;99.90;;;;;;5052660;28;19968;-66
2022/11/04 01:51:26;;;;;;;;;;;11.30;99.90;;;;;;5052131;28;19968;-66
2022/11/04 01:53:55;;;;;;;;;;;11.40;99.90;;;;;;5052640;28;19968;-66
2022/11/04 01:56:25;;;;;;;;;;;11.40;99.90;;;;;;5052438;28;19974;-66
2022/11/04 01:58:55;;;;;;;;;;;11.40;99.90;;;;;;5052069;28;19969;-65
2022/11/04 02:01:23;;;;;;;;;;;11.40;99.90;;;;;;5052318;28;19972;-65
2022/11/04 02:03:52;;;;;;;;;;;11.50;99.90;;;;;;5052479;28;20401;-65
2022/11/04 02:06:21;;;;;;;;;;;11.40;99.90;;;;;;5052447;28;20349;-66
2022/11/04 02:08:49;;;;;;;;;;;11.30;99.90;;;;;;5052391;28;20066;-65
2022/11/04 02:14:00;;;;;;;;;;;11.40;99.90;;;;;;5051626;28;19972;-65
2022/11/04 02:16:32;;;;;;;;;;;11.30;99.90;;;;;;5052222;28;20348;-66
2022/11/04 02:19:06;;;;;;;;;;;11.40;99.90;;;;;;5052536;28;20022;-65
2022/11/04 02:21:56;;;;;;;;;;;11.40;99.90;;;;;;5051830;28;20014;-66
2022/11/04 02:24:33;;;;;;;;;;;11.50;99.90;;;;;;5052091;28;20011;-67
2022/11/04 02:27:16;;;;;;;;;;;11.50;99.90;;;;;;5051386;28;20419;-66
2022/11/04 02:29:49;;;;;;;;;;;11.40;99.90;;;;;;5031987;28;19968;-65
2022/11/04 02:32:20;;;;;;;;;;;11.40;99.90;;;;;;5032306;28;19972;-66
2022/11/04 02:34:51;;;;;;;;;;;11.20;99.90;;;;;;5032148;28;19998;-66
2022/11/04 02:37:24;;;;;;;;;;;11.10;99.90;;;;;;5031998;28;19975;-65
2022/11/04 02:39:54;;;;;;;;;;;11.00;99.90;;;;;;5031735;28;19969;-66
2022/11/04 02:42:25;;;;;;;;;;;11.00;99.90;;;;;;5040012;28;19975;-65
2022/11/04 02:44:59;;;;;;;;;;;11.00;99.90;;;;;;5052059;28;19967;-66
2022/11/04 02:47:29;;;;;;;;;;;10.90;99.90;;;;;;5051960;28;20429;-65
2022/11/04 02:49:59;;;;;;;;;;;10.80;99.90;;;;;;5051504;28;19975;-65
2022/11/04 02:52:29;;;;;;;;;;;10.80;99.90;;;;;;5052009;28;20078;-65
2022/11/04 02:55:00;;;;;;;;;;;10.90;99.90;;;;;;5051694;28;19964;-66
2022/11/04 02:57:29;;;;;;;;;;;10.90;99.90;;;;;;5047702;28;19969;-66
2022/11/04 03:00:01;;;;;;;;;;;10.90;99.90;;;;;;5031469;28;19975;-65
2022/11/04 03:02:33;;;;;;;;;;;10.80;99.90;;;;;;5031867;28;19969;-66
2022/11/04 03:05:02;;;;;;;;;;;10.70;99.90;;;;;;5031814;28;19973;-66
2022/11/04 03:07:32;;;;;;;;;;;10.70;99.90;;;;;;5031764;28;20353;-66
2022/11/04 03:10:01;;;;;;;;;;;10.60;99.90;;;;;;5031444;28;19969;-65
2022/11/04 03:12:32;;;;;;;;;;;10.60;99.90;;;;;;5031460;28;20361;-65
2022/11/04 03:15:03;;;;;;;;;;;10.50;99.90;;;;;;5031643;28;19968;-65
2022/11/04 03:17:33;;;;;;;;;;;10.40;99.90;;;;;;5031542;28;19975;-66
2022/11/04 03:20:03;;;;;;;;;;;10.30;99.90;;;;;;5031560;28;19968;-66
2022/11/04 03:22:34;;;;;;;;;;;10.30;99.90;;;;;;5031587;28;19972;-65
2022/11/04 03:25:02;;;;;;;;;;;10.20;99.90;;;;;;5031668;28;19969;-65
2022/11/04 03:27:33;;;;;;;;;;;10.10;99.90;;;;;;5031759;28;20443;-65
2022/11/04 03:30:04;;;;;;;;;;;10.10;99.90;;;;;;5031393;28;19969;-65
2022/11/04 03:32:37;;;;;;;;;;;10.10;99.90;;;;;;5031384;28;20030;-66
2022/11/04 03:35:05;;;;;;;;;;;10.10;99.90;;;;;;5031447;28;19969;-66
2022/11/04 03:37:33;;;;;;;;;;;10.00;99.90;;;;;;5031361;28;19976;-65
2022/11/04 03:40:01;;;;;;;;;;;10.00;99.90;;;;;;5031002;28;19979;-65
2022/11/04 03:42:30;;;;;;;;;;;10.00;99.90;;;;;;5031379;28;19975;-65
2022/11/04 03:44:58;;;;;;;;;;;10.00;99.90;;;;;;5031534;28;19972;-65
2022/11/04 03:47:29;;;;;;;;;;;10.00;99.90;;;;;;5031259;28;19975;-65
2022/11/04 03:49:59;;;;;;;;;;;10.00;99.90;;;;;;5031060;28;19976;-65
2022/11/04 03:52:27;;;;;;;;;;;9.90;99.90;;;;;;5032315;28;19969;-65
2022/11/04 03:54:55;;;;;;;;;;;9.90;99.90;;;;;;5035028;28;20360;-65
2022/11/04 03:57:34;;;;;;;;;;;9.80;99.90;;;;;;5034557;28;20002;-65
2022/11/04 04:00:07;;;;;;;;;;;9.90;99.90;;;;;;5034637;28;19976;-65
2022/11/04 04:02:40;;;;;;;;;;;9.90;99.90;;;;;;5034567;28;19968;-65
2022/11/04 04:05:11;;;;;;;;;;;9.80;99.90;;;;;;5034770;28;20392;-65
2022/11/04 04:07:48;;;;;;;;;;;9.70;99.90;;;;;;5034724;28;20395;-65
2022/11/04 04:13:06;;;;;;;;;;;9.80;99.90;;;;;;5034696;28;19986;-66
2022/11/04 04:15:41;;;;;;;;;;;9.80;99.90;;;;;;5034868;28;19978;-66
2022/11/04 04:18:12;;;;;;;;;;;9.80;99.90;;;;;;5034449;28;20453;-65
2022/11/04 04:20:40;;;;;;;;;;;9.80;99.90;;;;;;5034232;28;19968;-66
2022/11/04 04:28:39;;;;;;;;;;;9.60;99.90;;;;;;5026121;28;20344;-66
2022/11/04 04:31:07;;;;;;;;;;;9.70;99.90;;;;;;5033870;28;19968;-66
2022/11/04 04:33:36;;;;;;;;;;;9.60;99.90;;;;;;5034275;28;19972;-65
2022/11/04 04:36:05;;;;;;;;;;;9.50;99.90;;;;;;5033702;28;20438;-65
2022/11/04 04:47:18;;;;;;;;;;;9.50;99.90;;;;;;5017999;28;19979;-65
2022/11/04 04:49:51;;;;;;;;;;;9.60;99.90;;;;;;5053809;28;19976;-65
2022/11/04 04:52:19;;;;;;;;;;;9.70;99.90;;;;;;5053454;28;19974;-66
2022/11/04 04:54:47;;;;;;;;;;;9.80;99.90;;;;;;5053574;28;19968;-66
2022/11/04 04:57:14;;;;;;;;;;;9.90;99.90;;;;;;5053407;28;19971;-65
2022/11/04 04:59:42;;;;;;;;;;;10.00;99.90;;;;;;5053374;28;19968;-65
2022/11/04 05:02:10;;;;;;;;;;;10.10;99.90;;;;;;5053582;28;19975;-65
2022/11/04 05:04:38;;;;;;;;;;;10.20;99.90;;;;;;5052598;28;20418;-65
2022/11/04 05:07:08;;;;;;;;;;;10.30;99.90;;;;;;5053525;28;19979;-65
2022/11/04 05:09:36;;;;;;;;;;;10.30;99.90;;;;;;5053264;28;19975;-65
2022/11/04 05:12:04;;;;;;;;;;;10.30;99.90;;;;;;5053248;28;20482;-65
2022/11/04 05:14:31;;;;;;;;;;;10.30;99.90;;;;;;5053504;28;20370;-66
2022/11/04 05:16:59;;;;;;;;;;;10.30;99.90;;;;;;5055553;28;19963;-65
2022/11/04 05:19:27;;;;;;;;;;;10.30;99.90;;;;;;5052070;28;19964;-65
2022/11/04 05:21:55;;;;;;;;;;;10.30;99.90;;;;;;5052199;28;19968;-66
2022/11/04 05:24:24;;;;;;;;;;;10.20;99.90;;;;;;5052038;28;19998;-66
2022/11/04 05:26:51;;;;;;;;;;;10.20;99.90;;;;;;5049537;28;19964;-66
2022/11/04 05:29:19;;;;;;;;;;;10.20;99.90;;;;;;5041697;28;19971;-65
2022/11/04 05:31:47;;;;;;;;;;;10.20;99.90;;;;;;5048581;28;20453;-65
2022/11/04 05:34:15;;;;;;;;;;;10.30;99.90;;;;;;5048246;28;20368;-65
2022/11/04 05:36:42;;;;;;;;;;;10.20;99.90;;;;;;5051391;28;19964;-65
2022/11/04 05:39:12;;;;;;;;;;;10.10;99.90;;;;;;5050623;28;19983;-66
2022/11/04 05:41:41;;;;;;;;;;;10.00;99.90;;;;;;5051400;28;19978;-65
2022/11/04 05:44:09;;;;;;;;;;;10.00;99.90;;;;;;5047983;28;20003;-65
2022/11/04 05:46:36;;;;;;;;;;;10.10;99.90;;;;;;5038743;28;19965;-66
2022/11/04 05:49:04;;;;;;;;;;;10.20;99.90;;;;;;5036884;28;20235;-66
2022/11/04 05:51:32;;;;;;;;;;;10.30;99.90;;;;;;5037699;28;20090;-66
2022/11/04 05:54:00;;;;;;;;;;;10.30;99.90;;;;;;5039174;28;19975;-65
2022/11/04 05:56:28;;;;;;;;;;;10.40;99.90;;;;;;5037698;28;19982;-65
2022/11/04 05:58:57;;;;;;;;;;;10.40;99.90;;;;;;5037195;28;19972;-66
2022/11/04 06:01:34;;;;;;;;;;;10.40;99.90;;;;;;5039374;28;20643;-65
2022/11/04 06:04:03;;;;;;;;;;;10.40;99.90;;;;;;5039025;28;19964;-65
2022/11/04 06:06:31;;;;;;;;;;;10.50;99.90;;;;;;5038526;28;19990;-65
2022/11/04 06:09:00;;;;;;;;;;;10.50;99.90;;;;;;5038793;28;19972;-66
2022/11/04 06:11:29;;;;;;;;;;;10.50;99.90;;;;;;5038734;28;20014;-66
2022/11/04 06:13:58;;;;;;;;;;;10.50;99.90;;;;;;5040431;28;19972;-65
2022/11/04 06:16:25;;;;;;;;;;;10.60;99.90;;;;;;5039129;28;19983;-65
2022/11/04 06:18:54;;;;;;;;;;;10.60;99.90;;;;;;5039775;28;20669;-65
2022/11/04 06:21:24;;;;;;;;;;;10.60;99.90;;;;;;5039596;28;19972;-66
2022/11/04 06:23:52;;;;;;;;;;;10.70;99.90;;;;;;5040940;28;20057;-65
2022/11/04 06:26:20;;;;;;;;;;;10.60;99.90;;;;;;5039132;28;19976;-65
2022/11/04 06:28:55;;;;;;;;;;;10.60;99.90;;;;;;5038880;28;19979;-65
2022/11/04 06:31:24;;;;;;;;;;;10.50;99.90;;;;;;5039292;28;19968;-65
2022/11/04 06:33:51;;;;;;;;;;;10.60;99.90;;;;;;5039800;28;19972;-66
2022/11/04 06:36:19;;;;;;;;;;;10.60;99.90;;;;;;5039811;28;19982;-65
2022/11/04 06:38:47;;;;;;;;;;;10.50;99.90;;;;;;5038409;28;19972;-65
2022/11/04 06:41:15;;;;;;;;;;;10.50;99.90;;;;;;5037874;28;19976;-65
2022/11/04 06:43:43;;;;;;;;;;;10.50;99.90;;;;;;5037207;28;20067;-65
2022/11/04 06:46:25;;;;;;;;;;;10.50;99.90;;;;;;5039374;28;19972;-65
2022/11/04 06:48:53;;;;;;;;;;;10.60;99.90;;;;;;5038843;28;20094;-65
2022/11/04 06:51:21;;;;;;;;;;;10.50;99.90;;;;;;5040302;28;19976;-64
2022/11/04 06:53:48;;;;;;;;;;;10.60;99.90;;;;;;5037994;28;19998;-66
2022/11/04 06:56:16;;;;;;;;;;;10.60;99.90;;;;;;5038528;28;19982;-65
2022/11/04 06:58:46;;;;;;;;;;;10.60;99.90;;;;;;5037552;28;20734;-65
2022/11/04 07:01:14;;;;;;;;;;;10.50;99.90;;;;;;5039751;28;19976;-65
2022/11/04 07:03:50;;;;;;;;;;;10.40;99.90;;;;;;5041718;28;20015;-65
2022/11/04 07:06:18;;;;;;;;;;;10.30;99.90;;;;;;5043307;28;19980;-65
2022/11/04 07:08:46;;;;;;;;;;;10.10;99.90;;;;;;5038885;28;19976;-65
2022/11/04 07:11:13;;;;;;;;;;;9.90;99.90;;;;;;5030965;28;19975;-65
2022/11/04 07:13:41;;;;;;;;;;;9.80;99.90;;;;;;5041879;28;19968;-65
2022/11/04 07:16:09;;;;;;;;;;;9.60;99.90;;;;;;5051627;28;19969;-65
2022/11/04 07:18:37;;;;;;;;;;;9.60;99.90;;;;;;5052982;28;19971;-64
2022/11/04 07:21:06;;;;;;;;;;;9.60;99.90;;;;;;5059736;28;19992;-67
2022/11/04 07:23:37;;;;;;;;;;;9.60;99.90;;;;;;5051432;28;20322;-65
2022/11/04 07:26:06;;;;;;;;;;;9.70;99.90;;;;;;5051519;28;19995;-65
2022/11/04 07:28:34;;;;;;;;;;;9.70;99.90;;;;;;5043360;28;19964;-65
2022/11/04 07:31:02;;;;;;;;;;;9.70;99.90;;;;;;5055012;22;19965;-62
2022/11/04 07:33:30;;;;;;;;;;;9.70;99.90;;;;;;5024152;28;20344;-62
2022/11/04 07:35:58;;;;;;;;;;;9.80;99.90;;;;;;5035589;28;19972;-62
2022/11/04 07:38:27;;;;;;;;;;;9.80;99.90;;;;;;5035239;28;20451;-62
2022/11/04 07:40:54;;;;;;;;;;;9.90;99.90;;;;;;5034284;28;19973;-62
2022/11/04 07:43:22;;;;;;;;;;;10.00;99.90;;;;;;5035024;28;19978;-62
2022/11/04 07:45:58;;;;;;;;;;;10.00;99.90;;;;;;5035346;28;19968;-61
2022/11/04 07:48:26;;;;;;;;;;;10.10;99.90;;;;;;5035623;28;20071;-62
2022/11/04 07:50:54;;;;;;;;;;;10.10;99.90;;;;;;5035098;28;19973;-62
2022/11/04 07:53:22;;;;;;;;;;;10.10;99.90;;;;;;5034823;28;19969;-61
2022/11/04 07:55:51;;;;;;;;;;;10.10;99.90;;;;;;5030379;28;19964;-62
2022/11/04 07:58:19;;;;;;;;;;;10.20;99.90;;;;;;5026611;28;19968;-62
2022/11/04 08:00:47;;;;;;;;;;;10.20;99.90;;;;;;5034889;28;20436;-62
2022/11/04 08:03:15;;;;;;;;;;;10.30;99.90;;;;;;5034793;28;20259;-62
2022/11/04 08:05:43;;;;;;;;;;;10.30;99.90;;;;;;5034974;28;19972;-62
2022/11/04 08:08:10;;;;;;;;;;;10.40;99.90;;;;;;5034884;28;19973;-62
2022/11/04 08:10:39;;;;;;;;;;;10.50;99.90;;;;;;5034408;28;19974;-62
2022/11/04 08:13:08;;;;;;;;;;;10.50;99.90;;;;;;5034262;28;19980;-62
2022/11/04 08:15:36;;;;;;;;;;;10.50;99.90;;;;;;5034806;28;19972;-62
2022/11/04 08:18:04;;;;;;;;;;;10.50;99.90;;;;;;5034359;28;19973;-62
2022/11/04 08:20:32;;;;;;;;;;;10.50;99.90;;;;;;5034239;28;19969;-62
2022/11/04 08:23:00;;;;;;;;;;;10.50;99.90;;;;;;5034228;28;20064;-62
2022/11/04 08:25:27;;;;;;;;;;;10.50;99.90;;;;;;5029832;28;19973;-62
2022/11/04 08:27:55;;;;;;;;;;;10.50;99.90;;;;;;5025810;28;19978;-62
2022/11/04 08:30:29;;;;;;;;;;;10.60;99.90;;;;;;5033928;28;20461;-62
2022/11/04 08:32:57;;;;;;;;;;;10.60;99.90;;;;;;5034143;28;19991;-62
2022/11/04 08:35:24;;;;;;;;;;;10.50;99.90;;;;;;5034276;28;19974;-62
2022/11/04 08:37:52;;;;;;;;;;;10.60;99.90;;;;;;5033924;28;20444;-62
2022/11/04 08:40:20;;;;;;;;;;;10.60;99.90;;;;;;5033601;28;20479;-62
2022/11/04 08:42:47;;;;;;;;;;;10.60;99.90;;;;;;5034031;28;20460;-62
2022/11/04 08:45:16;;;;;;;;;;;10.60;99.90;;;;;;5034251;28;20352;-62
2022/11/04 08:47:45;;;;;;;;;;;10.50;99.90;;;;;;5034052;28;19975;-62
2022/11/04 08:50:13;;;;;;;;;;;10.60;99.90;;;;;;5033541;28;19969;-62
2022/11/04 08:52:40;;;;;;;;;;;10.60;99.90;;;;;;5033856;28;20471;-62
2022/11/04 08:55:09;;;;;;;;;;;10.70;99.90;;;;;;5030426;28;20078;-62
2022/11/04 08:57:37;;;;;;;;;;;10.80;99.90;;;;;;5013922;28;19972;-62
2022/11/04 09:00:06;;;;;;;;;;;10.80;99.90;;;;;;5013665;28;20035;-62
2022/11/04 09:02:34;;;;;;;;;;;10.90;99.90;;;;;;5014014;28;20020;-62
2022/11/04 09:05:03;;;;;;;;;;;11.00;99.90;;;;;;5013930;28;19969;-62
2022/11/04 09:07:31;;;;;;;;;;;11.00;99.90;;;;;;5013703;28;20354;-62
2022/11/04 09:09:58;;;;;;;;;;;11.20;99.90;;;;;;5013435;28;19972;-62
2022/11/04 09:12:26;;;;;;;;;;;11.30;99.90;;;;;;5013982;28;19979;-62
2022/11/04 09:14:54;;;;;;;;;;;11.40;99.90;;;;;;5014147;28;19969;-62
2022/11/04 09:17:22;;;;;;;;;;;11.50;99.90;;;;;;5013721;28;19975;-63
2022/11/04 09:19:50;;;;;;;;;;;11.60;99.90;;;;;;5013066;28;19969;-61
2022/11/04 09:22:19;;;;;;;;;;;11.60;99.90;;;;;;5013836;28;19987;-62
2022/11/04 09:24:47;;;;;;;;;;;11.70;99.90;;;;;;5013909;28;19979;-62
2022/11/04 09:27:14;;;;;;;;;;;11.60;99.90;;;;;;5021828;28;19992;-62
2022/11/04 09:29:42;;;;;;;;;;;11.60;99.90;;;;;;5032844;28;19972;-62
2022/11/04 09:32:10;;;;;;;;;;;11.70;99.90;;;;;;5033196;28;20325;-62
2022/11/04 09:34:37;;;;;;;;;;;11.80;99.90;;;;;;5033245;28;20064;-62
2022/11/04 09:37:05;;;;;;;;;;;11.90;99.90;;;;;;5033132;28;19969;-62
2022/11/04 09:39:34;;;;;;;;;;;12.00;99.90;;;;;;5032744;28;19975;-62
2022/11/04 09:42:20;;;;;;;;;;;12.20;99.90;;;;;;5032889;28;20022;-62
2022/11/04 09:44:50;;;;;;;;;;;12.30;99.90;;;;;;5032603;28;19974;-61
2022/11/04 09:47:38;;;;;;;;;;;12.40;99.90;;;;;;5032734;28;19972;-62
2022/11/04 09:50:10;;;;;;;;;;;12.40;99.90;;;;;;5031847;28;20018;-62
2022/11/04 09:52:41;;;;;;;;;;;12.40;99.90;;;;;;5032884;28;20420;-62
2022/11/04 09:55:16;;;;;;;;;;;12.40;99.90;;;;;;5028555;28;19968;-62
2022/11/04 09:57:44;;;;;;;;;;;12.40;99.90;;;;;;5013989;28;19964;-62
2022/11/04 10:00:14;;;;;;;;;;;12.30;99.90;;;;;;5012447;28;19969;-62
2022/11/04 10:02:49;;;;;;;;;;;12.30;99.90;;;;;;5013100;28;19975;-62
2022/11/04 10:05:22;;;;;;;;;;;12.30;99.90;;;;;;5012969;28;19968;-62
2022/11/04 10:07:59;;;;;;;;;;;12.20;99.90;;;;;;5012609;28;19972;-62
2022/11/04 10:10:34;;;;;;;;;;;12.20;99.90;;;;;;5012536;28;19969;-62
2022/11/04 10:13:08;;;;;;;;;;;12.10;99.90;;;;;;5012773;28;20043;-61
2022/11/04 10:16:09;;;;;;;;;;;12.10;99.90;;;;;;5013089;28;20500;-61
2022/11/04 10:18:46;;;;;;;;;;;12.30;99.90;;;;;;4913943;29;19974;-62
2022/11/04 10:21:20;;;;;;;;;;;12.40;99.90;;;;;;4913629;29;20010;-62
2022/11/04 10:24:00;;;;;;;;;;;12.30;99.90;;;;;;4969033;28;19973;-62
2022/11/04 10:26:32;;;;;;;;;;;12.30;99.90;;;;;;5020809;28;20007;-62
2022/11/04 10:29:02;;;;;;;;;;;12.30;99.90;;;;;;5027199;28;19976;-62
2022/11/04 10:31:30;;;;;;;;;;;12.20;99.90;;;;;;5032063;28;19975;-62
2022/11/04 10:33:59;;;;;;;;;;;12.30;99.90;;;;;;5032514;28;19969;-62
2022/11/04 10:36:27;;;;;;;;;;;12.30;99.90;;;;;;5032392;28;20434;-62
2022/11/04 10:38:56;;;;;;;;;;;12.30;99.90;;;;;;5031809;28;19968;-61
2022/11/04 10:41:26;;;;;;;;;;;12.30;99.90;;;;;;5032002;28;19976;-62
2022/11/04 10:43:57;;;;;;;;;;;12.40;99.90;;;;;;5032312;28;19984;-62
2022/11/04 10:46:30;;;;;;;;;;;12.60;99.90;;;;;;5032699;28;19979;-62
2022/11/04 10:49:13;;;;;;;;;;;12.70;99.90;;;;;;5032429;28;19972;-62
2022/11/04 10:51:41;;;;;;;;;;;12.90;99.90;;;;;;5031867;28;20342;-62
2022/11/04 10:54:10;;;;;;;;;;;13.30;99.90;;;;;;5031961;28;19969;-62
2022/11/04 10:56:39;;;;;;;;;;;13.70;99.90;;;;;;5023887;28;20023;-63
2022/11/04 10:59:17;;;;;;;;;;;14.30;99.90;;;;;;5027702;28;20491;-62
2022/11/04 11:01:51;;;;;;;;;;;14.30;99.90;;;;;;5033659;28;19967;-62
2022/11/04 11:04:24;;;;;;;;;;;14.00;99.90;;;;;;5035863;28;20485;-62
2022/11/04 11:06:53;;;;;;;;;;;13.90;99.90;;;;;;5036037;28;19968;-62
2022/11/04 11:09:24;;;;;;;;;;;13.90;99.90;;;;;;5035538;28;19977;-62
2022/11/04 11:11:52;;;;;;;;;;;13.80;99.90;;;;;;5035633;28;20481;-62
2022/11/04 11:14:31;;;;;;;;;;;13.90;99.90;;;;;;5035617;28;19980;-62
2022/11/04 11:17:14;;;;;;;;;;;13.80;99.90;;;;;;5035891;28;19975;-62
2022/11/04 11:19:44;;;;;;;;;;;13.50;99.90;;;;;;5035369;28;19973;-63
2022/11/04 11:22:27;;;;;;;;;;;13.50;99.90;;;;;;5035894;28;19973;-62
2022/11/04 11:25:11;;;;;;;;;;;13.50;99.90;;;;;;5033169;28;19972;-66
2022/11/04 11:27:39;;;;;;;;;;;13.70;99.90;;;;;;5016234;28;19964;-62
2022/11/04 11:30:18;;;;;;;;;;;13.80;99.90;;;;;;5015149;28;20127;-62
2022/11/04 11:32:52;;;;;;;;;;;13.60;99.90;;;;;;5015856;28;20343;-63
2022/11/04 11:35:21;;;;;;;;;;;13.40;99.90;;;;;;5015705;28;19973;-62
2022/11/04 11:37:49;;;;;;;;;;;13.40;99.90;;;;;;5015777;28;19975;-62
2022/11/04 11:40:24;;;;;;;;;;;13.40;99.90;;;;;;5015524;28;20391;-63
2022/11/04 11:42:52;;;;;;;;;;;13.30;99.90;;;;;;5015695;28;19995;-62
2022/11/04 11:45:22;;;;;;;;;;;13.50;99.90;;;;;;5015436;28;19972;-62
2022/11/04 11:47:53;;;;;;;;;;;13.80;99.90;;;;;;5015311;28;19968;-63
2022/11/04 11:50:25;;;;;;;;;;;14.50;99.90;;;;;;5014802;28;19975;-62
2022/11/04 11:52:53;;;;;;;;;;;15.10;99.90;;;;;;5015317;28;19969;-63
2022/11/04 11:55:23;;;;;;;;;;;15.30;99.90;;;;;;5016417;28;20023;-62
2022/11/04 11:57:55;;;;;;;;;;;14.90;99.90;;;;;;5026705;28;19968;-62
2022/11/04 12:00:49;;;;;;;;;;;14.60;99.90;;;;;;5034442;28;19979;-62
2022/11/04 12:03:29;;;;;;;;;;;14.40;99.90;;;;;;5034904;28;19968;-62
2022/11/04 12:06:26;;;;;;;;;;;14.30;99.90;;;;;;5034814;28;20348;-62
2022/11/04 12:09:02;;;;;;;;;;;14.30;99.90;;;;;;5034618;28;20074;-62
2022/11/04 12:11:58;;;;;;;;;;;14.40;99.90;;;;;;5034879;28;20059;-62
2022/11/04 12:14:32;;;;;;;;;;;14.20;99.90;;;;;;5034218;28;19994;-62
2022/11/04 12:17:04;;;;;;;;;;;14.20;99.90;;;;;;5034737;28;20002;-62
2022/11/04 12:19:53;;;;;;;;;;;14.20;99.90;;;;;;5034300;28;19975;-62
2022/11/04 12:22:26;;;;;;;;;;;14.00;99.90;;;;;;5028568;28;20468;-62
2022/11/04 12:25:01;;;;;;;;;;;13.70;99.90;;;;;;5032578;28;19969;-62
2022/11/04 12:27:34;;;;;;;;;;;13.60;99.90;;;;;;5025127;28;20117;-62
2022/11/04 12:30:05;;;;;;;;;;;13.60;99.90;;;;;;5033748;28;19978;-62
2022/11/04 12:32:40;;;;;;;;;;;13.90;99.90;;;;;;5034392;28;20449;-63
2022/11/04 12:35:17;;;;;;;;;;;14.20;99.90;;;;;;5034417;28;20440;-62
2022/11/04 12:37:51;;;;;;;;;;;14.50;99.90;;;;;;5034153;28;19968;-63
2022/11/04 12:40:20;;;;;;;;;;;14.90;99.90;;;;;;5033735;28;20341;-63
2022/11/04 12:42:58;;;;;;;;;;;15.50;99.90;;;;;;5034196;28;20010;-63
2022/11/04 12:45:30;;;;;;;;;;;15.70;99.90;;;;;;5034148;28;20011;-62
2022/11/04 12:48:04;;;;;;;;;;;16.00;99.90;;;;;;5034126;28;19976;-62
2022/11/04 12:50:46;;;;;;;;;;;16.20;99.90;;;;;;5033487;28;19972;-62
2022/11/04 12:53:23;;;;;;;;;;;16.30;99.90;;;;;;5033973;28;19968;-63
2022/11/04 12:55:59;;;;;;;;;;;16.20;99.90;;;;;;5029332;28;19963;-62
2022/11/04 12:58:32;;;;;;;;;;;16.40;99.90;;;;;;5025664;28;20334;-63
2022/11/04 13:01:02;;;;;;;;;;;16.50;99.90;;;;;;5033566;28;20445;-62
2022/11/04 13:03:33;;;;;;;;;;;16.30;99.90;;;;;;5033853;28;20066;-62
2022/11/04 13:06:03;;;;;;;;;;;16.30;99.90;;;;;;5024122;28;19963;-62
2022/11/04 13:08:33;;;;;;;;;;;16.00;99.90;;;;;;5013476;28;19967;-62
2022/11/04 13:11:05;;;;;;;;;;;15.80;99.90;;;;;;5013503;28;19967;-62
2022/11/04 13:13:36;;;;;;;;;;;15.50;99.90;;;;;;5013778;28;19972;-63
2022/11/04 13:16:06;;;;;;;;;;;15.20;99.90;;;;;;5013747;28;20318;-63
2022/11/04 13:18:36;;;;;;;;;;;15.00;99.90;;;;;;5013661;28;19983;-62
2022/11/04 13:21:06;;;;;;;;;;;14.80;99.90;;;;;;5013285;28;19980;-63
2022/11/04 13:23:37;;;;;;;;;;;14.70;99.90;;;;;;5013655;28;20433;-62
2022/11/04 13:26:06;;;;;;;;;;;14.50;99.90;;;;;;5012497;28;20438;-63
2022/11/04 13:28:39;;;;;;;;;;;14.60;99.90;;;;;;5013649;28;19972;-62
2022/11/04 13:31:11;;;;;;;;;;;14.60;99.90;;;;;;5058039;22;19968;-72
2022/11/04 13:33:47;;;;;;;;;;;14.50;99.90;;;;;;5044804;28;20020;-73
2022/11/04 13:36:22;;;;;;;;;;;14.50;99.90;;;;;;5052862;28;19968;-72
2022/11/04 13:38:52;;;;;;;;;;;14.40;99.90;;;;;;5039423;28;19966;-68
2022/11/04 13:41:31;;;;;;;;;;;14.30;99.90;;;;;;5033012;28;19974;-72
2022/11/04 13:44:01;;;;;;;;;;;14.30;99.90;;;;;;5033049;28;20422;-72
2022/11/04 13:46:30;;;;;;;;;;;14.30;99.90;;;;;;5031624;28;19979;-72
2022/11/04 13:49:01;;;;;;;;;;;14.40;99.90;;;;;;5032696;28;19977;-72
2022/11/04 13:51:39;;;;;;;;;;;14.30;99.90;;;;;;5032681;28;19973;-72
2022/11/04 13:54:13;;;;;;;;;;;14.20;99.90;;;;;;5032952;28;19972;-72
2022/11/04 13:56:41;;;;;;;;;;;14.20;99.90;;;;;;5032814;28;19972;-73
2022/11/04 13:59:19;;;;;;;;;;;14.20;99.90;;;;;;5032476;28;19974;-72
2022/11/04 14:01:47;;;;;;;;;;;14.10;99.90;;;;;;5032877;28;20019;-72
2022/11/04 14:04:25;;;;;;;;;;;14.10;99.90;;;;;;5032600;28;20054;-72
2022/11/04 14:06:54;;;;;;;;;;;14.10;99.90;;;;;;5041276;28;20070;-72
2022/11/04 14:09:49;;;;;;;;;;;14.20;99.90;;;;;;5050353;28;20066;-72
2022/11/04 14:12:17;;;;;;;;;;;14.10;99.90;;;;;;5052864;28;19974;-72
2022/11/04 14:14:46;;;;;;;;;;;14.00;99.90;;;;;;5052216;28;19973;-72
2022/11/04 14:17:28;;;;;;;;;;;14.00;99.90;;;;;;5052354;28;19969;-72
2022/11/04 14:19:59;;;;;;;;;;;13.90;99.90;;;;;;5051918;28;19979;-72
2022/11/04 14:22:32;;;;;;;;;;;13.90;99.90;;;;;;5053575;28;19968;-72
2022/11/04 14:25:01;;;;;;;;;;;13.80;99.90;;;;;;5052191;28;19972;-72
2022/11/04 14:27:36;;;;;;;;;;;13.80;99.90;;;;;;5052482;28;19968;-72
2022/11/04 14:30:05;;;;;;;;;;;13.70;99.90;;;;;;5052202;28;19968;-72
2022/11/04 14:32:36;;;;;;;;;;;13.70;99.90;;;;;;5052180;28;19968;-72
2022/11/04 14:35:07;;;;;;;;;;;13.70;99.90;;;;;;5052016;28;20055;-72
2022/11/04 14:37:36;;;;;;;;;;;13.70;99.90;;;;;;5043252;28;19971;-72
2022/11/04 14:40:05;;;;;;;;;;;13.70;99.90;;;;;;5052128;28;20332;-73
2022/11/04 14:42:44;;;;;;;;;;;13.50;99.90;;;;;;5052060;28;19968;-72
2022/11/04 14:45:16;;;;;;;;;;;13.30;99.90;;;;;;5051833;28;19968;-72
2022/11/04 14:47:46;;;;;;;;;;;13.10;99.90;;;;;;5052066;28;19975;-72
2022/11/04 14:50:18;;;;;;;;;;;12.80;99.90;;;;;;5051877;28;19968;-72
2022/11/04 14:52:48;;;;;;;;;;;12.80;99.90;;;;;;5052079;28;19974;-72
2022/11/04 14:55:17;;;;;;;;;;;12.70;99.90;;;;;;5052075;28;19970;-72
2022/11/04 14:57:45;;;;;;;;;;;12.60;99.90;;;;;;5052155;28;20063;-72
2022/11/04 15:00:37;;;;;;;;;;;12.50;99.90;;;;;;5051947;28;19968;-72
2022/11/04 15:03:07;;;;;;;;;;;12.50;99.90;;;;;;5041807;28;20020;-72
2022/11/04 15:05:46;;;;;;;;;;;12.50;99.90;;;;;;5051347;28;19964;-71
2022/11/04 15:08:31;;;;;;;;;;;12.50;99.90;;;;;;5044083;28;19969;-69
2022/11/04 15:11:01;;;;;;;;;;;12.40;99.90;;;;;;5051446;28;20478;-70
2022/11/04 15:13:32;;;;;;;;;;;12.40;99.90;;;;;;5051692;28;20355;-68
2022/11/04 15:16:01;;;;;;;;;;;12.40;99.90;;;;;;5051479;28;19972;-68
2022/11/04 15:18:29;;;;;;;;;;;12.40;99.90;;;;;;5051542;28;19972;-70